createdAt,value
2019-05-05T00:00:45.221Z,3.19
2019-05-05T00:01:42.348Z,3.22
2019-05-05T00:02:39.201Z,3.19
2019-05-05T00:03:36.240Z,3.17
2019-05-05T00:04:34.842Z,3.16
2019-05-05T00:05:30.305Z,3.15
2019-05-05T00:06:27.275Z,3.13
2019-05-05T00:07:25.352Z,3.15
2019-05-05T00:08:21.338Z,3.15
2019-05-05T00:09:18.439Z,3.14
2019-05-05T00:10:15.284Z,3.11
2019-05-05T00:11:12.338Z,3.11
2019-05-05T00:12:09.418Z,3.10
2019-05-05T00:13:06.309Z,3.06
2019-05-05T00:14:04.722Z,3.05
2019-05-05T00:15:00.370Z,3.02
2019-05-05T00:15:57.443Z,3.00
2019-05-05T00:16:54.717Z,2.97
2019-05-05T00:17:51.387Z,2.95
2019-05-05T00:18:48.439Z,2.95
2019-05-05T00:19:45.568Z,2.97
2019-05-05T00:20:44.582Z,2.98
2019-05-05T00:21:39.427Z,2.97
2019-05-05T00:22:36.480Z,2.98
2019-05-05T00:23:34.549Z,3.00
2019-05-05T00:24:30.448Z,2.99
2019-05-05T00:25:27.472Z,2.97
2019-05-05T00:26:24.552Z,2.98
2019-05-05T00:27:21.562Z,2.95
2019-05-05T00:28:18.536Z,2.92
2019-05-05T00:29:15.555Z,2.90
2019-05-05T00:30:14.299Z,2.88
2019-05-05T00:31:09.638Z,2.85
2019-05-05T00:32:06.610Z,2.85
2019-05-05T00:33:05.412Z,2.86
2019-05-05T00:34:00.632Z,2.88
2019-05-05T00:34:57.551Z,2.86
2019-05-05T00:35:54.661Z,2.86
2019-05-05T00:36:51.622Z,2.91
2019-05-05T00:37:48.669Z,2.92
2019-05-05T00:38:45.633Z,2.95
2019-05-05T00:39:45.005Z,2.95
2019-05-05T00:40:39.665Z,2.96
2019-05-05T00:41:36.705Z,2.99
2019-05-05T00:42:35.231Z,2.99
2019-05-05T00:43:30.692Z,3.01
2019-05-05T00:44:27.805Z,3.01
2019-05-05T00:45:25.265Z,3.03
2019-05-05T00:46:21.688Z,3.04
2019-05-05T00:47:18.722Z,3.03
2019-05-05T00:48:15.685Z,3.04
2019-05-05T00:49:14.532Z,3.01
2019-05-05T00:50:09.821Z,3.02
2019-05-05T00:51:06.778Z,3.02
2019-05-05T00:52:05.125Z,3.01
2019-05-05T00:53:00.838Z,3.00
2019-05-05T00:53:57.878Z,3.00
2019-05-05T00:54:55.640Z,2.99
2019-05-05T00:55:51.901Z,2.99
2019-05-05T00:56:48.849Z,2.98
2019-05-05T00:57:45.827Z,2.95
2019-05-05T00:58:44.585Z,2.94
2019-05-05T00:59:39.840Z,2.91
2019-05-05T01:00:36.876Z,2.90
2019-05-05T01:01:34.348Z,2.88
2019-05-05T01:02:30.925Z,2.88
2019-05-05T01:03:27.857Z,2.84
2019-05-05T01:04:24.892Z,2.83
2019-05-05T01:05:21.946Z,2.84
2019-05-05T01:06:18.970Z,2.82
2019-05-05T01:07:15.895Z,2.81
2019-05-05T01:08:14.394Z,2.79
2019-05-05T01:09:09.992Z,2.76
2019-05-05T01:10:07.029Z,2.73
2019-05-05T01:11:04.227Z,2.69
2019-05-05T01:12:00.982Z,2.67
2019-05-05T01:12:58.018Z,2.64
2019-05-05T01:13:54.967Z,2.60
2019-05-05T01:14:52.010Z,2.56
2019-05-05T01:15:49.024Z,2.56
2019-05-05T01:16:46.168Z,2.55
2019-05-05T01:17:44.988Z,2.54
2019-05-05T01:18:40.038Z,2.53
2019-05-05T01:19:37.091Z,2.54
2019-05-05T01:20:34.412Z,2.55
2019-05-05T01:21:31.053Z,2.59
2019-05-05T01:22:28.125Z,2.64
2019-05-05T01:23:25.130Z,2.68
2019-05-05T01:24:22.162Z,2.72
2019-05-05T01:25:19.124Z,2.73
2019-05-05T01:26:16.136Z,2.79
2019-05-05T01:27:14.717Z,2.79
2019-05-05T01:28:10.151Z,2.80
2019-05-05T01:29:07.174Z,2.80
2019-05-05T01:30:04.793Z,2.81
2019-05-05T01:31:01.307Z,2.83
2019-05-05T01:31:58.160Z,2.84
2019-05-05T01:32:56.064Z,2.83
2019-05-05T01:33:54.108Z,2.82
2019-05-05T01:34:49.437Z,2.79
2019-05-05T01:35:46.300Z,2.77
2019-05-05T01:36:45.163Z,2.75
2019-05-05T01:37:40.277Z,2.72
2019-05-05T01:38:37.313Z,2.69
2019-05-05T01:39:34.645Z,2.65
2019-05-05T01:40:31.413Z,2.63
2019-05-05T01:41:28.344Z,2.61
2019-05-05T01:42:25.362Z,2.63
2019-05-05T01:43:22.295Z,2.58
2019-05-05T01:44:19.336Z,2.57
2019-05-05T01:45:16.384Z,2.53
2019-05-05T01:46:14.337Z,2.52
2019-05-05T01:47:10.341Z,2.49
2019-05-05T01:48:07.418Z,2.47
2019-05-05T01:49:05.318Z,2.49
2019-05-05T01:50:16.680Z,2.49
2019-05-05T01:50:58.713Z,2.48
2019-05-05T01:51:55.490Z,2.49
2019-05-05T01:52:52.467Z,2.48
2019-05-05T01:53:49.404Z,2.47
2019-05-05T01:54:46.537Z,2.48
2019-05-05T01:55:45.155Z,2.49
2019-05-05T01:56:40.431Z,2.53
2019-05-05T01:57:37.448Z,2.53
2019-05-05T01:58:34.972Z,2.52
2019-05-05T01:59:31.546Z,2.49
2019-05-05T02:00:28.471Z,2.45
2019-05-05T02:01:25.535Z,2.43
2019-05-05T02:02:22.540Z,2.42
2019-05-05T02:03:19.627Z,2.41
2019-05-05T02:04:16.513Z,2.40
2019-05-05T02:05:14.799Z,2.40
2019-05-05T02:06:10.629Z,2.39
2019-05-05T02:07:07.717Z,2.35
2019-05-05T02:08:05.105Z,2.31
2019-05-05T02:09:01.600Z,2.28
2019-05-05T02:09:58.667Z,2.27
2019-05-05T02:10:55.584Z,2.25
2019-05-05T02:11:54.628Z,2.22
2019-05-05T02:12:49.637Z,2.19
2019-05-05T02:13:46.678Z,2.17
2019-05-05T02:14:44.444Z,2.13
2019-05-05T02:15:40.663Z,2.07
2019-05-05T02:16:37.727Z,2.04
2019-05-05T02:17:35.268Z,2.00
2019-05-05T02:18:31.700Z,1.96
2019-05-05T02:19:28.735Z,1.91
2019-05-05T02:20:29.415Z,1.87
2019-05-05T02:21:24.310Z,1.85
2019-05-05T02:22:19.718Z,1.82
2019-05-05T02:23:16.784Z,1.79
2019-05-05T02:24:14.474Z,1.75
2019-05-05T02:25:10.823Z,1.77
2019-05-05T02:26:07.845Z,1.79
2019-05-05T02:27:05.262Z,1.79
2019-05-05T02:28:01.871Z,1.80
2019-05-05T02:28:58.908Z,1.79
2019-05-05T02:29:55.802Z,1.79
2019-05-05T02:30:55.064Z,1.76
2019-05-05T02:31:49.975Z,1.69
2019-05-05T02:32:46.836Z,1.63
2019-05-05T02:33:46.019Z,1.57
2019-05-05T02:34:40.889Z,1.49
2019-05-05T02:35:37.927Z,1.42
2019-05-05T02:36:35.594Z,1.36
2019-05-05T02:37:31.993Z,1.29
2019-05-05T02:38:28.935Z,1.25
2019-05-05T02:39:25.977Z,1.19
2019-05-05T02:40:24.489Z,1.13
2019-05-05T02:41:19.967Z,1.08
2019-05-05T02:42:16.995Z,1.04
2019-05-05T02:43:15.086Z,1.00
2019-05-05T02:44:10.957Z,0.98
2019-05-05T02:45:08.054Z,0.93
2019-05-05T02:46:05.673Z,0.89
2019-05-05T02:47:04.602Z,0.85
2019-05-05T02:47:59.024Z,0.81
2019-05-05T02:48:56.044Z,0.76
2019-05-05T02:49:54.917Z,0.72
2019-05-05T02:50:55.934Z,0.68
2019-05-05T02:51:47.063Z,0.64
2019-05-05T02:52:44.284Z,0.61
2019-05-05T02:53:41.161Z,0.57
2019-05-05T02:54:38.101Z,0.50
2019-05-05T02:55:35.094Z,0.44
2019-05-05T02:56:34.095Z,0.37
2019-05-05T02:57:29.261Z,0.33
2019-05-05T02:58:26.128Z,0.30
2019-05-05T02:59:23.735Z,0.27
2019-05-05T03:00:20.182Z,0.23
2019-05-05T03:01:17.276Z,0.19
2019-05-05T03:02:14.512Z,0.18
2019-05-05T03:03:13.381Z,0.17
2019-05-05T03:04:08.287Z,0.16
2019-05-05T03:05:05.167Z,0.15
2019-05-05T03:06:04.344Z,0.12
2019-05-05T03:06:59.250Z,0.11
2019-05-05T03:07:56.289Z,0.10
2019-05-05T03:08:54.275Z,0.09
2019-05-05T03:09:50.260Z,0.08
2019-05-05T03:10:47.324Z,0.09
2019-05-05T03:11:44.337Z,0.11
2019-05-05T03:12:41.264Z,0.12
2019-05-05T03:13:38.319Z,0.14
2019-05-05T03:14:35.335Z,0.16
2019-05-05T03:15:33.649Z,0.18
2019-05-05T03:16:29.320Z,0.18
2019-05-05T03:17:26.386Z,0.21
2019-05-05T03:18:24.628Z,0.21
2019-05-05T03:19:20.469Z,0.23
2019-05-05T03:20:17.359Z,0.27
2019-05-05T03:21:14.394Z,0.30
2019-05-05T03:22:11.474Z,0.34
2019-05-05T03:23:08.379Z,0.37
2019-05-05T03:24:05.424Z,0.40
2019-05-05T03:25:04.521Z,0.42
2019-05-05T03:25:59.479Z,0.44
2019-05-05T03:26:56.411Z,0.43
2019-05-05T03:27:53.826Z,0.42
2019-05-05T03:28:50.511Z,0.40
2019-05-05T03:29:47.528Z,0.37
2019-05-05T03:30:45.436Z,0.36
2019-05-05T03:31:41.518Z,0.33
2019-05-05T03:32:38.547Z,0.33
2019-05-05T03:33:35.493Z,0.31
2019-05-05T03:34:34.296Z,0.28
2019-05-05T03:35:29.542Z,0.27
2019-05-05T03:36:26.637Z,0.26
2019-05-05T03:37:25.050Z,0.27
2019-05-05T03:38:20.542Z,0.27
2019-05-05T03:39:17.606Z,0.26
2019-05-05T03:40:14.897Z,0.25
2019-05-05T03:41:13.511Z,0.23
2019-05-05T03:42:08.603Z,0.21
2019-05-05T03:43:05.635Z,0.18
2019-05-05T03:44:04.595Z,0.16
2019-05-05T03:44:59.627Z,0.13
2019-05-05T03:45:56.648Z,0.12
2019-05-05T03:46:54.387Z,0.09
2019-05-05T03:47:50.734Z,0.08
2019-05-05T03:48:47.748Z,0.04
2019-05-05T03:49:44.712Z,0.00
2019-05-05T03:50:41.739Z,-0.04
2019-05-05T03:51:38.776Z,-0.08
2019-05-05T03:52:35.751Z,-0.12
2019-05-05T03:53:33.791Z,-0.17
2019-05-05T03:54:29.794Z,-0.19
2019-05-05T03:55:26.724Z,-0.20
2019-05-05T03:56:24.213Z,-0.26
2019-05-05T03:57:20.790Z,-0.30
2019-05-05T03:58:17.874Z,-0.33
2019-05-05T03:59:14.791Z,-0.39
2019-05-05T04:00:11.822Z,-0.43
2019-05-05T04:01:08.878Z,-0.46
2019-05-05T04:02:06.108Z,-0.49
2019-05-05T04:03:04.299Z,-0.49
2019-05-05T04:03:59.862Z,-0.52
2019-05-05T04:04:56.911Z,-0.52
2019-05-05T04:05:53.929Z,-0.55
2019-05-05T04:06:50.895Z,-0.57
2019-05-05T04:07:47.900Z,-0.58
2019-05-05T04:08:44.941Z,-0.60
2019-05-05T04:09:43.257Z,-0.61
2019-05-05T04:10:38.918Z,-0.61
2019-05-05T04:11:35.946Z,-0.63
2019-05-05T04:12:34.571Z,-0.63
2019-05-05T04:13:29.935Z,-0.62
2019-05-05T04:14:26.978Z,-0.61
2019-05-05T04:15:24.542Z,-0.58
2019-05-05T04:16:21.033Z,-0.60
2019-05-05T04:17:17.973Z,-0.60
2019-05-05T04:18:15.009Z,-0.57
2019-05-05T04:19:13.799Z,-0.56
2019-05-05T04:20:09.121Z,-0.52
2019-05-05T04:21:06.011Z,-0.51
2019-05-05T04:22:04.250Z,-0.50
2019-05-05T04:23:00.099Z,-0.51
2019-05-05T04:23:57.139Z,-0.51
2019-05-05T04:24:54.266Z,-0.49
2019-05-05T04:25:51.101Z,-0.47
2019-05-05T04:26:48.143Z,-0.47
2019-05-05T04:27:45.173Z,-0.44
2019-05-05T04:28:43.634Z,-0.42
2019-05-05T04:29:39.165Z,-0.42
2019-05-05T04:30:36.270Z,-0.40
2019-05-05T04:31:34.567Z,-0.38
2019-05-05T04:32:30.181Z,-0.37
2019-05-05T04:33:27.206Z,-0.35
2019-05-05T04:34:24.261Z,-0.33
2019-05-05T04:35:21.200Z,-0.31
2019-05-05T04:36:18.204Z,-0.28
2019-05-05T04:37:15.318Z,-0.25
2019-05-05T04:38:13.884Z,-0.15
2019-05-05T04:39:09.233Z,-0.09
2019-05-05T04:40:06.311Z,-0.09
2019-05-05T04:41:03.603Z,-0.08
2019-05-05T04:42:00.325Z,-0.04
2019-05-05T04:42:57.328Z,0.06
2019-05-05T04:43:54.822Z,0.16
2019-05-05T04:44:53.639Z,0.21
2019-05-05T04:45:48.361Z,0.23
2019-05-05T04:46:45.307Z,0.22
2019-05-05T04:47:43.590Z,0.23
2019-05-05T04:48:39.382Z,0.26
2019-05-05T04:49:36.406Z,0.28
2019-05-05T04:50:34.539Z,0.32
2019-05-05T04:51:43.460Z,0.33
2019-05-05T04:52:27.432Z,0.36
2019-05-05T04:53:24.366Z,0.38
2019-05-05T04:54:21.425Z,0.42
2019-05-05T04:55:18.442Z,0.46
2019-05-05T04:56:15.492Z,0.56
2019-05-05T04:57:12.480Z,0.64
2019-05-05T04:58:09.458Z,0.68
2019-05-05T04:59:06.581Z,0.72
2019-05-05T05:00:04.212Z,0.73
2019-05-05T05:01:00.570Z,0.80
2019-05-05T05:01:57.498Z,0.89
2019-05-05T05:02:54.539Z,0.96
2019-05-05T05:03:51.618Z,0.99
2019-05-05T05:04:48.516Z,1.00
2019-05-05T05:05:45.552Z,1.00
2019-05-05T05:06:43.605Z,1.00
2019-05-05T05:07:39.523Z,1.03
2019-05-05T05:08:36.559Z,1.07
2019-05-05T05:09:34.189Z,1.10
2019-05-05T05:10:30.659Z,1.17
2019-05-05T05:11:27.563Z,1.24
2019-05-05T05:12:24.603Z,1.27
2019-05-05T05:13:21.640Z,1.29
2019-05-05T05:14:18.595Z,1.37
2019-05-05T05:15:15.626Z,1.39
2019-05-05T05:16:13.902Z,1.44
2019-05-05T05:17:09.781Z,1.50
2019-05-05T05:18:06.726Z,1.52
2019-05-05T05:19:04.327Z,1.57
2019-05-05T05:20:00.736Z,1.62
2019-05-05T05:20:57.734Z,1.70
2019-05-05T05:22:01.663Z,1.75
2019-05-05T05:22:51.705Z,1.79
2019-05-05T05:23:48.795Z,1.80
2019-05-05T05:24:45.789Z,1.82
2019-05-05T05:25:43.827Z,1.83
2019-05-05T05:26:39.860Z,1.85
2019-05-05T05:27:36.815Z,1.85
2019-05-05T05:28:34.285Z,1.86
2019-05-05T05:29:30.812Z,1.86
2019-05-05T05:30:27.823Z,1.88
2019-05-05T05:31:24.846Z,1.89
2019-05-05T05:32:21.800Z,1.91
2019-05-05T05:33:18.816Z,1.97
2019-05-05T05:34:15.912Z,2.01
2019-05-05T05:35:14.158Z,2.05
2019-05-05T05:36:09.853Z,2.09
2019-05-05T05:37:06.883Z,2.13
2019-05-05T05:38:04.673Z,2.16
2019-05-05T05:39:00.938Z,2.19
2019-05-05T05:39:57.888Z,2.23
2019-05-05T05:40:54.996Z,2.26
2019-05-05T05:41:53.971Z,2.29
2019-05-05T05:42:49.054Z,2.33
2019-05-05T05:43:45.954Z,2.36
2019-05-05T05:44:44.444Z,2.41
2019-05-05T05:45:40.028Z,2.46
2019-05-05T05:46:37.031Z,2.52
2019-05-05T05:47:33.993Z,2.55
2019-05-05T05:48:31.006Z,2.60
2019-05-05T05:49:28.079Z,2.61
2019-05-05T05:50:24.990Z,2.66
2019-05-05T05:51:23.781Z,2.69
2019-05-05T05:52:19.461Z,2.72
2019-05-05T05:53:16.142Z,2.74
2019-05-05T05:54:14.141Z,2.76
2019-05-05T05:55:10.090Z,2.79
2019-05-05T05:56:07.108Z,2.81
2019-05-05T05:57:04.439Z,2.85
2019-05-05T05:58:01.093Z,2.86
2019-05-05T05:58:58.099Z,2.93
2019-05-05T05:59:55.198Z,2.98
2019-05-05T06:00:53.981Z,3.02
2019-05-05T06:01:49.169Z,3.02
2019-05-05T06:02:46.123Z,3.08
2019-05-05T06:03:44.341Z,3.11
2019-05-05T06:04:40.275Z,3.14
2019-05-05T06:05:37.273Z,3.17
2019-05-05T06:06:34.683Z,3.20
2019-05-05T06:07:33.493Z,3.23
2019-05-05T06:08:29.919Z,3.27
2019-05-05T06:09:25.263Z,3.33
2019-05-05T06:10:26.655Z,3.36
2019-05-05T06:11:19.375Z,3.44
2019-05-05T06:12:16.232Z,3.50
2019-05-05T06:13:15.255Z,3.53
2019-05-05T06:14:10.321Z,3.60
2019-05-05T06:15:07.373Z,3.66
2019-05-05T06:16:04.525Z,3.73
2019-05-05T06:17:01.333Z,3.79
2019-05-05T06:17:58.373Z,3.90
2019-05-05T06:18:55.424Z,3.98
2019-05-05T06:19:53.461Z,4.07
2019-05-05T06:20:49.356Z,4.17
2019-05-05T06:21:46.409Z,4.28
2019-05-05T06:22:44.672Z,4.42
2019-05-05T06:23:40.389Z,4.59
2019-05-05T06:24:37.441Z,4.71
2019-05-05T06:25:34.469Z,4.80
2019-05-05T06:26:31.398Z,4.90
2019-05-05T06:27:28.456Z,5.01
2019-05-05T06:28:25.487Z,5.17
2019-05-05T06:29:23.944Z,5.25
2019-05-05T06:30:19.457Z,5.36
2019-05-05T06:31:16.491Z,5.42
2019-05-05T06:32:14.581Z,5.52
2019-05-05T06:33:10.478Z,5.57
2019-05-05T06:34:07.460Z,5.55
2019-05-05T06:35:04.484Z,5.59
2019-05-05T06:36:03.607Z,5.63
2019-05-05T06:36:58.525Z,5.67
2019-05-05T06:37:55.490Z,5.69
2019-05-05T06:38:54.128Z,5.71
2019-05-05T06:39:49.520Z,5.73
2019-05-05T06:40:46.516Z,5.76
2019-05-05T06:41:43.562Z,5.76
2019-05-05T06:42:40.574Z,5.76
2019-05-05T06:43:37.631Z,5.79
2019-05-05T06:44:34.596Z,5.82
2019-05-05T06:45:31.594Z,5.88
2019-05-05T06:46:28.666Z,5.88
2019-05-05T06:47:25.657Z,5.92
2019-05-05T06:48:23.726Z,6.01
2019-05-05T06:49:19.710Z,6.09
2019-05-05T06:50:16.742Z,6.13
2019-05-05T06:51:14.133Z,6.15
2019-05-05T06:52:10.694Z,6.15
2019-05-05T06:53:07.706Z,6.21
2019-05-05T06:54:04.846Z,6.26
2019-05-05T06:55:03.620Z,6.32
2019-05-05T06:55:58.722Z,6.36
2019-05-05T06:56:55.849Z,6.38
2019-05-05T06:57:53.880Z,6.44
2019-05-05T06:58:49.711Z,6.48
2019-05-05T06:59:46.766Z,6.53
2019-05-05T07:00:44.173Z,6.55
2019-05-05T07:01:40.848Z,6.59
2019-05-05T07:02:37.800Z,6.59
2019-05-05T07:03:34.835Z,6.61
2019-05-05T07:04:33.810Z,6.63
2019-05-05T07:05:28.843Z,6.67
2019-05-05T07:06:25.862Z,6.69
2019-05-05T07:07:23.635Z,6.69
2019-05-05T07:08:19.807Z,6.73
2019-05-05T07:09:16.855Z,6.80
2019-05-05T07:10:14.186Z,6.82
2019-05-05T07:11:11.000Z,6.92
2019-05-05T07:12:07.944Z,7.03
2019-05-05T07:13:05.066Z,7.15
2019-05-05T07:14:03.714Z,7.19
2019-05-05T07:14:58.963Z,7.32
2019-05-05T07:15:55.892Z,7.50
2019-05-05T07:16:54.467Z,7.61
2019-05-05T07:17:49.974Z,7.69
2019-05-05T07:18:47.045Z,7.80
2019-05-05T07:19:44.959Z,7.86
2019-05-05T07:20:41.032Z,7.94
2019-05-05T07:21:38.020Z,8.14
2019-05-05T07:22:35.063Z,8.31
2019-05-05T07:23:33.851Z,8.51
2019-05-05T07:24:29.055Z,8.65
2019-05-05T07:25:39.580Z,8.75
2019-05-05T07:26:23.741Z,8.75
2019-05-05T07:27:20.076Z,8.61
2019-05-05T07:28:17.114Z,8.51
2019-05-05T07:29:17.920Z,8.47
2019-05-05T07:30:11.051Z,8.40
2019-05-05T07:31:08.104Z,8.34
2019-05-05T07:32:05.163Z,8.26
2019-05-05T07:33:04.424Z,8.31
2019-05-05T07:33:59.119Z,8.46
2019-05-05T07:34:56.137Z,8.64
2019-05-05T07:35:59.409Z,8.81
2019-05-05T07:36:50.273Z,9.02
2019-05-05T07:37:47.228Z,8.81
2019-05-05T07:38:44.325Z,8.81
2019-05-05T07:39:41.235Z,8.85
2019-05-05T07:40:38.241Z,8.96
2019-05-05T07:41:35.163Z,9.10
2019-05-05T07:42:33.559Z,9.19
2019-05-05T07:43:29.285Z,9.27
2019-05-05T07:44:29.581Z,9.14
2019-05-05T07:45:25.633Z,9.32
2019-05-05T07:46:20.276Z,9.59
2019-05-05T07:47:17.216Z,9.97
2019-05-05T07:48:14.305Z,10.19
2019-05-05T07:49:11.303Z,10.38
2019-05-05T07:50:14.512Z,10.48
2019-05-05T07:51:05.517Z,10.61
2019-05-05T07:52:04.043Z,10.85
2019-05-05T07:53:11.498Z,10.76
2019-05-05T07:53:56.370Z,10.28
2019-05-05T07:54:55.129Z,9.89
2019-05-05T07:55:50.340Z,9.68
2019-05-05T07:56:47.464Z,9.59
2019-05-05T07:57:44.428Z,9.40
2019-05-05T07:58:41.373Z,9.52
2019-05-05T07:59:38.479Z,9.59
2019-05-05T08:00:35.478Z,10.46
2019-05-05T08:01:33.688Z,11.31
2019-05-05T08:02:29.395Z,12.21
2019-05-05T08:03:26.468Z,12.85
2019-05-05T08:04:24.236Z,13.15
2019-05-05T08:05:20.531Z,13.61
2019-05-05T08:06:17.487Z,14.09
2019-05-05T08:07:14.815Z,14.43
2019-05-05T08:08:13.728Z,14.47
2019-05-05T08:09:08.561Z,13.18
2019-05-05T08:10:05.611Z,11.92
2019-05-05T08:11:04.657Z,10.90
2019-05-05T08:11:59.621Z,10.31
2019-05-05T08:12:56.809Z,9.93
2019-05-05T08:13:54.749Z,9.64
2019-05-05T08:14:50.612Z,9.85
2019-05-05T08:15:59.171Z,10.73
2019-05-05T08:16:44.792Z,11.56
2019-05-05T08:17:41.597Z,12.28
2019-05-05T08:18:38.719Z,12.79
2019-05-05T08:19:35.618Z,13.22
2019-05-05T08:20:33.919Z,13.18
2019-05-05T08:21:29.719Z,12.97
2019-05-05T08:22:26.686Z,12.34
2019-05-05T08:23:31.807Z,11.88
2019-05-05T08:24:20.650Z,11.82
2019-05-05T08:25:18.252Z,12.13
2019-05-05T08:26:14.773Z,11.77
2019-05-05T08:27:11.728Z,11.21
2019-05-05T08:28:08.734Z,10.64
2019-05-05T08:29:05.751Z,10.25
2019-05-05T08:30:05.145Z,10.13
2019-05-05T08:30:59.735Z,10.64
2019-05-05T08:31:56.830Z,10.67
2019-05-05T08:32:54.475Z,10.89
2019-05-05T08:33:50.761Z,11.73
2019-05-05T08:34:57.463Z,12.64
2019-05-05T08:35:44.968Z,13.84
2019-05-05T08:36:41.735Z,15.05
2019-05-05T08:37:38.810Z,14.94
2019-05-05T08:38:35.795Z,14.19
2019-05-05T08:39:34.544Z,13.35
2019-05-05T08:40:29.861Z,12.56
2019-05-05T08:41:26.916Z,11.96
2019-05-05T08:42:24.652Z,11.43
2019-05-05T08:43:20.885Z,11.02
2019-05-05T08:44:18.207Z,10.65
2019-05-05T08:45:14.883Z,10.26
2019-05-05T08:46:14.183Z,10.02
2019-05-05T08:47:08.973Z,9.88
2019-05-05T08:48:05.910Z,10.03
2019-05-05T08:49:04.389Z,9.90
2019-05-05T08:49:59.998Z,12.00
2019-05-05T08:50:56.905Z,14.69
2019-05-05T08:51:54.743Z,17.00
2019-05-05T08:52:51.012Z,17.97
2019-05-05T08:53:48.540Z,17.28
2019-05-05T08:54:44.930Z,16.20
2019-05-05T08:55:44.109Z,15.02
2019-05-05T08:56:39.099Z,13.69
2019-05-05T08:57:36.044Z,12.64
2019-05-05T08:58:34.402Z,11.68
2019-05-05T08:59:30.063Z,10.88
2019-05-05T09:00:27.140Z,10.43
2019-05-05T09:01:24.088Z,10.30
2019-05-05T09:02:21.028Z,10.22
2019-05-05T09:03:18.100Z,10.19
2019-05-05T09:04:15.400Z,10.10
2019-05-05T09:05:14.321Z,10.02
2019-05-05T09:06:09.165Z,10.00
2019-05-05T09:07:06.152Z,9.96
2019-05-05T09:08:04.591Z,11.40
2019-05-05T09:09:00.127Z,12.18
2019-05-05T09:09:57.206Z,13.22
2019-05-05T09:10:55.251Z,14.88
2019-05-05T09:11:51.185Z,14.01
2019-05-05T09:12:48.127Z,12.97
2019-05-05T09:13:45.167Z,11.93
2019-05-05T09:14:42.287Z,11.22
2019-05-05T09:15:39.147Z,10.50
2019-05-05T09:16:36.211Z,9.97
2019-05-05T09:17:33.620Z,9.53
2019-05-05T09:18:30.286Z,9.23
2019-05-05T09:19:27.215Z,9.06
2019-05-05T09:20:24.550Z,8.96
2019-05-05T09:21:21.303Z,8.82
2019-05-05T09:22:18.213Z,8.85
2019-05-05T09:23:15.269Z,8.88
2019-05-05T09:24:14.260Z,8.97
2019-05-05T09:25:09.315Z,9.03
2019-05-05T09:26:06.260Z,9.19
2019-05-05T09:27:03.729Z,9.31
2019-05-05T09:28:03.018Z,10.03
2019-05-05T09:28:57.479Z,10.85
2019-05-05T09:29:54.425Z,11.38
2019-05-05T09:30:53.511Z,11.51
2019-05-05T09:31:48.450Z,11.50
2019-05-05T09:32:45.317Z,11.47
2019-05-05T09:33:44.236Z,11.25
2019-05-05T09:34:39.412Z,10.92
2019-05-05T09:35:36.440Z,10.56
2019-05-05T09:36:34.830Z,10.26
2019-05-05T09:37:30.480Z,10.00
2019-05-05T09:38:30.054Z,9.77
2019-05-05T09:39:24.438Z,9.61
2019-05-05T09:40:21.432Z,9.53
2019-05-05T09:41:18.567Z,9.48
2019-05-05T09:42:15.562Z,9.43
2019-05-05T09:43:14.538Z,9.34
2019-05-05T09:44:09.449Z,9.27
2019-05-05T09:45:06.543Z,9.23
2019-05-05T09:46:03.989Z,9.22
2019-05-05T09:47:00.474Z,9.27
2019-05-05T09:47:57.730Z,9.36
2019-05-05T09:48:54.628Z,9.51
2019-05-05T09:49:51.551Z,9.55
2019-05-05T09:50:49.135Z,9.55
2019-05-05T09:51:45.579Z,9.55
2019-05-05T09:52:44.314Z,9.53
2019-05-05T09:53:39.608Z,9.55
2019-05-05T09:54:36.585Z,9.61
2019-05-05T09:55:33.725Z,9.72
2019-05-05T09:56:30.704Z,9.89
2019-05-05T09:57:27.579Z,10.22
2019-05-05T09:58:24.602Z,10.90
2019-05-05T09:59:23.510Z,13.05
2019-05-05T10:00:18.668Z,14.64
2019-05-05T10:01:15.699Z,15.79
2019-05-05T10:02:12.697Z,16.43
2019-05-05T10:03:09.982Z,16.04
2019-05-05T10:04:06.756Z,15.23
2019-05-05T10:05:04.033Z,14.27
2019-05-05T10:06:00.744Z,13.36
2019-05-05T10:06:57.814Z,12.61
2019-05-05T10:07:54.757Z,12.05
2019-05-05T10:08:53.744Z,11.51
2019-05-05T10:09:48.780Z,10.93
2019-05-05T10:10:45.688Z,10.46
2019-05-05T10:11:44.801Z,10.15
2019-05-05T10:12:39.954Z,9.90
2019-05-05T10:13:36.764Z,9.72
2019-05-05T10:14:34.255Z,9.64
2019-05-05T10:15:30.807Z,9.60
2019-05-05T10:16:27.750Z,9.61
2019-05-05T10:17:24.833Z,9.69
2019-05-05T10:18:21.870Z,9.82
2019-05-05T10:19:18.806Z,10.26
2019-05-05T10:20:16.646Z,10.85
2019-05-05T10:21:13.822Z,11.77
2019-05-05T10:22:09.852Z,12.36
2019-05-05T10:23:07.059Z,12.85
2019-05-05T10:24:04.577Z,13.31
2019-05-05T10:25:01.020Z,13.38
2019-05-05T10:25:57.864Z,13.60
2019-05-05T10:26:54.921Z,13.46
2019-05-05T10:27:53.838Z,13.82
2019-05-05T10:28:48.974Z,14.02
2019-05-05T10:29:46.001Z,13.96
2019-05-05T10:30:42.992Z,14.02
2019-05-05T10:31:40.079Z,14.19
2019-05-05T10:32:36.918Z,14.22
2019-05-05T10:33:36.355Z,14.40
2019-05-05T10:34:31.047Z,14.67
2019-05-05T10:35:28.076Z,14.89
2019-05-05T10:36:24.976Z,15.14
2019-05-05T10:37:23.521Z,15.55
2019-05-05T10:38:19.066Z,15.69
2019-05-05T10:39:16.072Z,15.63
2019-05-05T10:40:13.010Z,15.93
2019-05-05T10:41:10.153Z,16.47
2019-05-05T10:42:07.094Z,16.44
2019-05-05T10:43:04.564Z,16.05
2019-05-05T10:44:01.092Z,15.32
2019-05-05T10:44:58.137Z,14.93
2019-05-05T10:45:55.058Z,14.73
2019-05-05T10:46:53.923Z,14.19
2019-05-05T10:47:49.172Z,13.85
2019-05-05T10:48:46.272Z,13.39
2019-05-05T10:49:44.183Z,13.22
2019-05-05T10:50:40.206Z,13.19
2019-05-05T10:51:37.253Z,13.27
2019-05-05T10:52:34.210Z,13.05
2019-05-05T10:53:31.149Z,12.89
2019-05-05T10:54:40.581Z,12.81
2019-05-05T10:55:25.208Z,12.73
2019-05-05T10:56:24.089Z,12.50
2019-05-05T10:57:19.224Z,12.21
2019-05-05T10:58:16.313Z,12.14
2019-05-05T10:59:13.359Z,12.06
2019-05-05T11:00:14.784Z,11.93
2019-05-05T11:01:07.228Z,11.60
2019-05-05T11:02:04.856Z,11.31
2019-05-05T11:03:01.322Z,11.07
2019-05-05T11:03:58.404Z,10.81
2019-05-05T11:04:55.312Z,10.61
2019-05-05T11:05:53.804Z,10.43
2019-05-05T11:06:49.346Z,10.28
2019-05-05T11:07:46.379Z,10.10
2019-05-05T11:08:45.145Z,10.00
2019-05-05T11:09:40.459Z,9.86
2019-05-05T11:10:37.399Z,9.68
2019-05-05T11:11:34.451Z,9.57
2019-05-05T11:12:31.466Z,9.51
2019-05-05T11:13:28.411Z,9.51
2019-05-05T11:14:25.366Z,9.53
2019-05-05T11:15:24.522Z,9.59
2019-05-05T11:16:19.414Z,9.56
2019-05-05T11:17:16.460Z,9.53
2019-05-05T11:18:14.749Z,9.52
2019-05-05T11:19:10.429Z,9.52
2019-05-05T11:20:07.492Z,9.52
2019-05-05T11:21:04.498Z,9.56
2019-05-05T11:22:01.576Z,9.60
2019-05-05T11:22:58.490Z,9.64
2019-05-05T11:23:55.563Z,9.69
2019-05-05T11:24:58.290Z,9.77
2019-05-05T11:25:49.483Z,9.81
2019-05-05T11:26:46.516Z,9.84
2019-05-05T11:27:44.131Z,9.86
2019-05-05T11:28:40.519Z,9.92
2019-05-05T11:29:37.626Z,9.97
2019-05-05T11:30:34.568Z,10.14
2019-05-05T11:31:31.629Z,10.34
2019-05-05T11:32:28.576Z,11.05
2019-05-05T11:33:25.614Z,11.52
2019-05-05T11:34:24.633Z,12.09
2019-05-05T11:35:19.590Z,12.71
2019-05-05T11:36:16.635Z,13.35
2019-05-05T11:37:13.651Z,13.71
2019-05-05T11:38:10.756Z,13.92
2019-05-05T11:39:07.698Z,14.25
2019-05-05T11:40:04.664Z,14.47
2019-05-05T11:41:01.775Z,14.69
2019-05-05T11:41:58.767Z,14.30
2019-05-05T11:42:55.640Z,13.82
2019-05-05T11:43:53.468Z,13.55
2019-05-05T11:44:49.833Z,13.43
2019-05-05T11:45:46.670Z,13.81
2019-05-05T11:46:44.258Z,14.06
2019-05-05T11:47:40.767Z,14.26
2019-05-05T11:48:37.772Z,14.43
2019-05-05T11:49:34.711Z,14.82
2019-05-05T11:50:31.780Z,15.05
2019-05-05T11:51:28.902Z,14.75
2019-05-05T11:52:25.852Z,14.75
2019-05-05T11:53:24.888Z,14.92
2019-05-05T11:54:19.860Z,14.72
2019-05-05T11:55:16.857Z,14.48
2019-05-05T11:56:14.454Z,14.23
2019-05-05T11:57:10.837Z,14.44
2019-05-05T11:58:07.883Z,15.05
2019-05-05T11:59:04.911Z,15.38
2019-05-05T12:00:03.727Z,15.61
2019-05-05T12:00:58.819Z,15.89
2019-05-05T12:01:55.924Z,15.63
2019-05-05T12:02:54.373Z,15.56
2019-05-05T12:03:49.956Z,15.72
2019-05-05T12:04:47.540Z,15.43
2019-05-05T12:05:44.386Z,14.92
2019-05-05T12:06:41.107Z,14.38
2019-05-05T12:07:37.946Z,13.96
2019-05-05T12:08:34.938Z,13.52
2019-05-05T12:09:33.731Z,13.22
2019-05-05T12:10:29.059Z,12.94
2019-05-05T12:11:26.053Z,12.63
2019-05-05T12:12:22.988Z,12.31
2019-05-05T12:13:20.062Z,12.07
2019-05-05T12:14:17.108Z,11.85
2019-05-05T12:15:14.006Z,11.77
2019-05-05T12:16:11.143Z,11.71
2019-05-05T12:17:07.975Z,11.67
2019-05-05T12:18:05.062Z,11.59
2019-05-05T12:19:02.246Z,11.51
2019-05-05T12:19:59.170Z,11.53
2019-05-05T12:20:56.018Z,11.63
2019-05-05T12:21:54.747Z,11.72
2019-05-05T12:22:50.177Z,11.82
2019-05-05T12:26:08.971Z,11.88
2019-05-05T12:27:06.034Z,12.23
2019-05-05T12:28:04.442Z,13.03
2019-05-05T12:29:00.067Z,13.89
2019-05-05T12:29:57.095Z,14.36
2019-05-05T12:30:55.608Z,14.46
2019-05-05T12:31:51.185Z,14.42
2019-05-05T12:32:48.157Z,14.47